createdAt,value
2023-05-14T00:00:27.746Z,8.77
2023-05-14T00:01:27.764Z,8.76
2023-05-14T00:02:27.811Z,8.74
2023-05-14T00:03:27.925Z,8.74
2023-05-14T00:04:27.823Z,8.73
2023-05-14T00:05:27.723Z,8.71
2023-05-14T00:06:27.707Z,8.70
2023-05-14T00:07:27.700Z,8.68
2023-05-14T00:08:27.667Z,8.70
2023-05-14T00:09:27.684Z,8.68
2023-05-14T00:10:27.645Z,8.66
2023-05-14T00:11:27.665Z,8.66
2023-05-14T00:12:27.632Z,8.63
2023-05-14T00:13:27.623Z,8.62
2023-05-14T00:14:27.597Z,8.61
2023-05-14T00:15:27.626Z,8.61
2023-05-14T00:16:27.621Z,8.59
2023-05-14T00:17:27.662Z,8.58
2023-05-14T00:18:27.630Z,8.56
2023-05-14T00:19:27.567Z,8.52
2023-05-14T00:20:27.537Z,8.47
2023-05-14T00:21:27.554Z,8.44
2023-05-14T00:22:27.512Z,8.44
2023-05-14T00:23:27.543Z,8.41
2023-05-14T00:24:27.498Z,8.38
2023-05-14T00:25:27.521Z,8.34
2023-05-14T00:26:27.472Z,8.34
2023-05-14T00:27:27.556Z,8.30
2023-05-14T00:28:27.460Z,8.29
2023-05-14T00:29:27.484Z,8.34
2023-05-14T00:30:27.425Z,8.37
2023-05-14T00:31:27.475Z,8.34
2023-05-14T00:32:27.455Z,8.33
2023-05-14T00:33:27.427Z,8.30
2023-05-14T00:34:27.398Z,8.28
2023-05-14T00:35:27.413Z,8.26
2023-05-14T00:36:27.363Z,8.28
2023-05-14T00:37:27.370Z,8.28
2023-05-14T00:38:27.373Z,8.29
2023-05-14T00:39:27.348Z,8.30
2023-05-14T00:40:27.348Z,8.33
2023-05-14T00:41:27.345Z,8.30
2023-05-14T00:42:27.305Z,8.33
2023-05-14T00:43:27.320Z,8.30
2023-05-14T00:44:27.284Z,8.29
2023-05-14T00:45:27.312Z,8.29
2023-05-14T00:46:27.316Z,8.26
2023-05-14T00:47:27.321Z,8.26
2023-05-14T00:48:27.242Z,8.28
2023-05-14T00:49:27.264Z,8.25
2023-05-14T00:50:27.289Z,8.22
2023-05-14T00:51:27.251Z,8.20
2023-05-14T00:52:27.197Z,8.20
2023-05-14T00:53:27.220Z,8.22
2023-05-14T00:54:27.180Z,8.18
2023-05-14T00:55:27.207Z,8.20
2023-05-14T00:56:27.158Z,8.18
2023-05-14T00:57:27.186Z,8.20
2023-05-14T00:58:27.166Z,8.19
2023-05-14T00:59:27.152Z,8.20
2023-05-14T01:00:27.113Z,8.23
2023-05-14T01:01:27.207Z,8.26
2023-05-14T01:02:27.146Z,8.28
2023-05-14T01:03:27.208Z,8.29
2023-05-14T01:04:27.070Z,8.29
2023-05-14T01:05:27.208Z,8.30
2023-05-14T01:06:27.070Z,8.30
2023-05-14T01:07:27.070Z,8.29
2023-05-14T01:08:27.023Z,8.29
2023-05-14T01:09:27.086Z,8.28
2023-05-14T01:10:27.085Z,8.28
2023-05-14T01:11:27.010Z,8.30
2023-05-14T01:12:26.995Z,8.30
2023-05-14T01:13:27.016Z,8.29
2023-05-14T01:14:26.961Z,8.29
2023-05-14T01:15:26.988Z,8.29
2023-05-14T01:16:26.967Z,8.29
2023-05-14T01:17:26.970Z,8.34
2023-05-14T01:18:26.968Z,8.34
2023-05-14T01:19:26.926Z,8.36
2023-05-14T01:20:26.930Z,8.34
2023-05-14T01:21:26.928Z,8.25
2023-05-14T01:22:26.881Z,8.25
2023-05-14T01:23:26.912Z,8.28
2023-05-14T01:24:26.882Z,8.30
2023-05-14T01:25:26.886Z,8.36
2023-05-14T01:26:26.837Z,8.40
2023-05-14T01:27:26.836Z,8.43
2023-05-14T01:28:26.815Z,8.47
2023-05-14T01:29:26.843Z,8.50
2023-05-14T01:30:26.888Z,8.52
2023-05-14T01:31:26.849Z,8.52
2023-05-14T01:32:26.868Z,8.48
2023-05-14T01:33:26.806Z,8.53
2023-05-14T01:34:26.764Z,8.53
2023-05-14T01:35:26.756Z,8.55
2023-05-14T01:36:26.730Z,8.56
2023-05-14T01:37:26.733Z,8.56
2023-05-14T01:38:26.713Z,8.58
2023-05-14T01:39:26.735Z,8.58
2023-05-14T01:40:26.727Z,8.59
2023-05-14T01:41:26.706Z,8.61
2023-05-14T01:42:26.664Z,8.61
2023-05-14T01:43:26.702Z,8.61
2023-05-14T01:44:26.641Z,8.62
2023-05-14T01:45:26.666Z,8.62
2023-05-14T01:46:26.634Z,8.63
2023-05-14T01:47:26.647Z,8.68
2023-05-14T01:48:26.611Z,8.70
2023-05-14T01:49:26.607Z,8.71
2023-05-14T01:50:26.581Z,8.71
2023-05-14T01:51:26.608Z,8.68
2023-05-14T01:52:26.557Z,8.65
2023-05-14T01:53:26.558Z,8.65
2023-05-14T01:54:26.534Z,8.65
2023-05-14T01:55:26.560Z,8.65
2023-05-14T01:56:26.522Z,8.66
2023-05-14T01:57:26.545Z,8.70
2023-05-14T01:58:26.496Z,8.74
2023-05-14T01:59:26.499Z,8.80
2023-05-14T02:00:26.663Z,8.83
2023-05-14T02:01:26.567Z,8.86
2023-05-14T02:02:26.528Z,8.89
2023-05-14T02:03:26.479Z,8.92
2023-05-14T02:04:26.558Z,8.92
2023-05-14T02:05:26.449Z,8.95
2023-05-14T02:06:26.401Z,8.96
2023-05-14T02:07:26.441Z,8.99
2023-05-14T02:08:26.387Z,8.99
2023-05-14T02:09:26.393Z,9.04
2023-05-14T02:10:26.451Z,9.10
2023-05-14T02:11:26.373Z,9.11
2023-05-14T02:12:26.355Z,9.11
2023-05-14T02:13:26.393Z,9.10
2023-05-14T02:14:26.323Z,9.05
2023-05-14T02:15:26.350Z,9.04
2023-05-14T02:16:26.370Z,9.04
2023-05-14T02:17:26.426Z,9.05
2023-05-14T02:18:26.315Z,9.05
2023-05-14T02:19:26.297Z,9.10
2023-05-14T02:20:26.344Z,9.11
2023-05-14T02:21:26.268Z,9.11
2023-05-14T02:22:26.252Z,9.15
2023-05-14T02:23:37.875Z,9.17
2023-05-14T02:24:26.219Z,9.17
2023-05-14T02:25:26.224Z,9.20
2023-05-14T02:26:26.202Z,9.20
2023-05-14T02:27:26.202Z,9.21
2023-05-14T02:28:26.177Z,9.23
2023-05-14T02:29:26.206Z,9.21
2023-05-14T02:30:26.177Z,9.23
2023-05-14T02:31:26.191Z,9.24
2023-05-14T02:32:26.211Z,9.23
2023-05-14T02:33:26.199Z,9.28
2023-05-14T02:34:26.145Z,9.29
2023-05-14T02:35:26.138Z,9.32
2023-05-14T02:36:26.099Z,9.35
2023-05-14T02:37:26.116Z,9.39
2023-05-14T02:38:26.074Z,9.40
2023-05-14T02:39:26.095Z,9.39
2023-05-14T02:40:26.287Z,9.42
2023-05-14T02:41:26.072Z,9.40
2023-05-14T02:42:26.037Z,9.42
2023-05-14T02:43:26.032Z,9.43
2023-05-14T02:44:26.007Z,9.43
2023-05-14T02:45:26.022Z,9.43
2023-05-14T02:46:26.000Z,9.43
2023-05-14T02:47:26.031Z,9.46
2023-05-14T02:48:25.967Z,9.46
2023-05-14T02:49:25.971Z,9.47
2023-05-14T02:50:26.225Z,9.47
2023-05-14T02:51:25.954Z,9.48
2023-05-14T02:52:25.932Z,9.47
2023-05-14T02:53:25.936Z,9.47
2023-05-14T02:54:25.909Z,9.47
2023-05-14T02:55:25.942Z,9.43
2023-05-14T02:56:25.895Z,9.43
2023-05-14T02:57:25.894Z,9.43
2023-05-14T02:58:28.218Z,9.42
2023-05-14T02:59:25.883Z,9.43
2023-05-14T03:00:26.098Z,9.42
2023-05-14T03:01:25.875Z,9.40
2023-05-14T03:02:25.957Z,9.40
2023-05-14T03:03:25.858Z,9.40
2023-05-14T03:04:25.796Z,9.40
2023-05-14T03:05:25.814Z,9.40
2023-05-14T03:06:25.797Z,9.42
2023-05-14T03:07:25.769Z,9.40
2023-05-14T03:08:25.777Z,9.40
2023-05-14T03:09:25.777Z,9.40
2023-05-14T03:10:25.961Z,9.40
2023-05-14T03:11:25.699Z,9.39
2023-05-14T03:12:25.684Z,9.38
2023-05-14T03:13:25.720Z,9.39
2023-05-14T03:14:25.707Z,9.42
2023-05-14T03:15:25.717Z,9.43
2023-05-14T03:16:25.660Z,9.50
2023-05-14T03:17:25.741Z,9.51
2023-05-14T03:18:25.701Z,9.53
2023-05-14T03:19:25.672Z,9.56
2023-05-14T03:20:25.824Z,9.57
2023-05-14T03:21:25.613Z,9.58
2023-05-14T03:22:25.577Z,9.58
2023-05-14T03:23:25.573Z,9.60
2023-05-14T03:24:25.533Z,9.61
2023-05-14T03:25:25.557Z,9.64
2023-05-14T03:26:25.514Z,9.61
2023-05-14T03:27:25.533Z,9.60
2023-05-14T03:28:25.509Z,9.60
2023-05-14T03:29:25.498Z,9.57
2023-05-14T03:30:25.792Z,9.57
2023-05-14T03:31:25.514Z,9.56
2023-05-14T03:32:25.476Z,9.58
2023-05-14T03:33:25.473Z,9.58
2023-05-14T03:34:25.443Z,9.58
2023-05-14T03:35:25.457Z,9.61
2023-05-14T03:36:25.407Z,9.61
2023-05-14T03:37:25.423Z,9.58
2023-05-14T03:38:25.389Z,9.60
2023-05-14T03:39:25.411Z,9.61
2023-05-14T03:40:25.613Z,9.61
2023-05-14T03:41:25.365Z,9.61
2023-05-14T03:42:25.343Z,9.61
2023-05-14T03:43:25.369Z,9.61
2023-05-14T03:44:25.332Z,9.64
2023-05-14T03:45:25.338Z,9.65
2023-05-14T03:46:25.294Z,9.65
2023-05-14T03:47:25.331Z,9.69
2023-05-14T03:48:25.405Z,9.69
2023-05-14T03:49:25.291Z,9.72
2023-05-14T03:50:25.659Z,9.74
2023-05-14T03:51:25.264Z,9.74
2023-05-14T03:52:25.232Z,9.74
2023-05-14T03:53:25.249Z,9.75
2023-05-14T03:54:25.220Z,9.76
2023-05-14T03:55:25.240Z,9.76
2023-05-14T03:56:25.190Z,9.78
2023-05-14T03:57:25.216Z,9.79
2023-05-14T03:58:25.170Z,9.78
2023-05-14T03:59:25.169Z,9.79
2023-05-14T04:00:25.544Z,9.83
2023-05-14T04:01:25.174Z,9.84
2023-05-14T04:02:25.209Z,9.84
2023-05-14T04:03:25.234Z,9.84
2023-05-14T04:04:25.179Z,9.86
2023-05-14T04:05:25.112Z,9.84
2023-05-14T04:06:25.098Z,9.86
2023-05-14T04:07:25.098Z,9.86
2023-05-14T04:08:25.066Z,9.86
2023-05-14T04:09:25.060Z,9.86
2023-05-14T04:10:25.223Z,9.86
2023-05-14T04:11:25.037Z,9.87
2023-05-14T04:12:25.033Z,9.87
2023-05-14T04:13:25.024Z,9.89
2023-05-14T04:14:25.034Z,9.89
2023-05-14T04:15:25.004Z,9.91
2023-05-14T04:16:25.021Z,9.94
2023-05-14T04:17:25.010Z,9.93
2023-05-14T04:18:25.060Z,9.96
2023-05-14T04:19:24.952Z,9.97
2023-05-14T04:20:25.177Z,10.01
2023-05-14T04:21:24.924Z,9.99
2023-05-14T04:22:24.988Z,9.99
2023-05-14T04:23:24.905Z,10.02
2023-05-14T04:24:24.911Z,10.02
2023-05-14T04:25:24.879Z,10.04
2023-05-14T04:26:24.903Z,10.01
2023-05-14T04:27:24.872Z,9.99
2023-05-14T04:28:24.894Z,9.99
2023-05-14T04:29:24.845Z,10.01
2023-05-14T04:30:25.080Z,10.05
2023-05-14T04:31:24.850Z,10.05
2023-05-14T04:32:24.881Z,10.08
2023-05-14T04:33:24.810Z,10.08
2023-05-14T04:34:24.807Z,10.07
2023-05-14T04:35:25.104Z,10.08
2023-05-14T04:36:24.786Z,10.11
2023-05-14T04:37:24.752Z,10.14
2023-05-14T04:38:24.777Z,10.15
2023-05-14T04:39:24.742Z,10.18
2023-05-14T04:40:24.983Z,10.22
2023-05-14T04:41:24.714Z,10.25
2023-05-14T04:42:24.731Z,10.27
2023-05-14T04:43:24.687Z,10.32
2023-05-14T04:44:24.721Z,10.32
2023-05-14T04:45:24.671Z,10.33
2023-05-14T04:46:24.742Z,10.33
2023-05-14T04:47:24.669Z,10.34
2023-05-14T04:48:24.665Z,10.34
2023-05-14T04:49:24.638Z,10.36
2023-05-14T04:50:24.913Z,10.36
2023-05-14T04:51:24.595Z,10.34
2023-05-14T04:52:24.630Z,10.38
2023-05-14T04:53:24.592Z,10.40
2023-05-14T04:54:24.616Z,10.40
2023-05-14T04:55:24.605Z,10.42
2023-05-14T04:56:24.563Z,10.45
2023-05-14T04:57:24.539Z,10.47
2023-05-14T04:58:24.569Z,10.48
2023-05-14T04:59:24.526Z,10.48
2023-05-14T05:00:24.924Z,10.48
2023-05-14T05:01:24.589Z,10.51
2023-05-14T05:02:24.566Z,10.51
2023-05-14T05:03:24.607Z,10.52
2023-05-14T05:04:24.485Z,10.52
2023-05-14T05:05:24.468Z,10.51
2023-05-14T05:06:24.459Z,10.51
2023-05-14T05:07:24.434Z,10.52
2023-05-14T05:08:24.458Z,10.52
2023-05-14T05:09:24.421Z,10.52
2023-05-14T05:10:24.773Z,10.51
2023-05-14T05:11:24.391Z,10.52
2023-05-14T05:12:24.446Z,10.51
2023-05-14T05:13:24.370Z,10.48
2023-05-14T05:14:24.381Z,10.48
2023-05-14T05:15:26.520Z,10.48
2023-05-14T05:16:24.395Z,10.47
2023-05-14T05:17:24.389Z,10.47
2023-05-14T05:18:24.368Z,10.44
2023-05-14T05:19:35.741Z,10.42
2023-05-14T05:20:24.512Z,10.42
2023-05-14T05:21:24.298Z,10.42
2023-05-14T05:22:24.312Z,10.41
2023-05-14T05:23:24.273Z,10.41
2023-05-14T05:24:24.278Z,10.42
2023-05-14T05:25:24.245Z,10.44
2023-05-14T05:26:24.264Z,10.44
2023-05-14T05:27:24.238Z,10.45
2023-05-14T05:28:24.244Z,10.45
2023-05-14T05:29:24.200Z,10.48
2023-05-14T05:30:24.495Z,10.47
2023-05-14T05:31:24.205Z,10.48
2023-05-14T05:32:24.230Z,10.48
2023-05-14T05:33:24.179Z,10.51
2023-05-14T05:34:24.168Z,10.52
2023-05-14T05:35:24.146Z,10.53
2023-05-14T05:36:24.180Z,10.53
2023-05-14T05:37:24.137Z,10.53
2023-05-14T05:38:24.158Z,10.55
2023-05-14T05:39:24.103Z,10.55
2023-05-14T05:40:24.371Z,10.59
2023-05-14T05:41:24.078Z,10.59
2023-05-14T05:42:24.089Z,10.59
2023-05-14T05:43:24.049Z,10.61
2023-05-14T05:44:24.068Z,10.60
2023-05-14T05:45:24.047Z,10.61
2023-05-14T05:46:24.065Z,10.63
2023-05-14T05:47:24.063Z,10.64
2023-05-14T05:48:24.011Z,10.64
2023-05-14T05:49:23.990Z,10.67
2023-05-14T05:50:24.161Z,10.67
2023-05-14T05:51:23.964Z,10.70
2023-05-14T05:52:24.000Z,10.71
2023-05-14T05:53:23.989Z,10.74
2023-05-14T05:54:24.068Z,10.79
2023-05-14T05:55:23.921Z,10.79
2023-05-14T05:56:23.937Z,10.82
2023-05-14T05:57:26.191Z,10.86
2023-05-14T05:58:23.912Z,10.89
2023-05-14T05:59:23.904Z,10.94
2023-05-14T06:00:24.334Z,10.97
2023-05-14T06:01:23.888Z,11.03
2023-05-14T06:02:23.890Z,11.07
2023-05-14T06:03:23.872Z,11.11
2023-05-14T06:04:23.857Z,11.18
2023-05-14T06:05:23.907Z,11.24
2023-05-14T06:06:23.877Z,11.32
2023-05-14T06:07:23.797Z,11.39
2023-05-14T06:08:23.813Z,11.44
2023-05-14T06:09:23.772Z,11.51
2023-05-14T06:10:24.063Z,11.54
2023-05-14T06:11:23.768Z,11.58
2023-05-14T06:12:23.761Z,11.72
2023-05-14T06:13:23.732Z,11.82
2023-05-14T06:14:23.747Z,11.88
2023-05-14T06:15:23.730Z,11.95
2023-05-14T06:16:23.748Z,12.02
2023-05-14T06:17:23.825Z,12.07
2023-05-14T06:18:23.695Z,12.13
2023-05-14T06:19:23.680Z,12.17
2023-05-14T06:20:23.864Z,12.23
2023-05-14T06:21:23.682Z,12.27
2023-05-14T06:22:23.650Z,12.32
2023-05-14T06:23:23.676Z,12.37
2023-05-14T06:24:23.635Z,12.39
2023-05-14T06:25:23.618Z,12.42
2023-05-14T06:26:23.618Z,12.46
2023-05-14T06:27:23.613Z,12.47
2023-05-14T06:28:23.613Z,12.52
2023-05-14T06:29:23.651Z,12.53
2023-05-14T06:30:23.907Z,12.59
2023-05-14T06:31:23.560Z,12.64
2023-05-14T06:32:23.702Z,12.68
2023-05-14T06:33:23.566Z,12.74
2023-05-14T06:34:23.553Z,12.82
2023-05-14T06:35:23.501Z,12.89
2023-05-14T06:36:23.558Z,12.95
2023-05-14T06:37:23.480Z,13.00
2023-05-14T06:38:23.496Z,13.01
2023-05-14T06:39:23.454Z,13.05
2023-05-14T06:40:23.682Z,13.08
2023-05-14T06:41:23.442Z,13.08
2023-05-14T06:42:23.460Z,13.12
2023-05-14T06:43:23.417Z,13.15
2023-05-14T06:44:23.413Z,13.20
2023-05-14T06:45:23.386Z,13.25
2023-05-14T06:46:23.463Z,13.30
2023-05-14T06:47:23.435Z,13.36
2023-05-14T06:48:23.469Z,13.39
2023-05-14T06:49:23.349Z,13.45
2023-05-14T06:50:23.624Z,13.46
2023-05-14T06:51:23.348Z,13.45
2023-05-14T06:52:23.383Z,13.51
2023-05-14T06:53:23.307Z,13.54
2023-05-14T06:54:23.322Z,13.59
2023-05-14T06:55:23.343Z,13.62
2023-05-14T06:56:23.298Z,13.67
2023-05-14T06:57:23.276Z,13.70
2023-05-14T06:58:23.284Z,13.75
2023-05-14T06:59:23.248Z,13.79
2023-05-14T07:00:23.482Z,13.85
2023-05-14T07:01:23.305Z,13.89
2023-05-14T07:02:23.253Z,13.91
2023-05-14T07:03:23.209Z,13.91
2023-05-14T07:04:23.322Z,13.97
2023-05-14T07:05:23.176Z,14.02
2023-05-14T07:06:23.204Z,14.02
2023-05-14T07:07:23.149Z,14.06
2023-05-14T07:08:23.171Z,14.12
2023-05-14T07:09:23.145Z,14.14
2023-05-14T07:10:23.327Z,14.15
2023-05-14T07:11:23.146Z,14.17
2023-05-14T07:12:23.139Z,14.22
2023-05-14T07:13:23.090Z,14.27
2023-05-14T07:14:23.112Z,14.35
2023-05-14T07:15:23.072Z,14.42
2023-05-14T07:16:23.083Z,14.47
2023-05-14T07:17:23.121Z,14.54
2023-05-14T07:18:23.069Z,14.55
2023-05-14T07:19:23.018Z,14.62
2023-05-14T07:20:23.296Z,14.70
2023-05-14T07:21:23.003Z,14.77
2023-05-14T07:22:23.021Z,14.92
2023-05-14T07:23:23.175Z,15.10
2023-05-14T07:24:23.026Z,15.46
2023-05-14T07:25:22.982Z,15.62
2023-05-14T07:26:22.979Z,16.00
2023-05-14T07:27:22.944Z,16.20
2023-05-14T07:28:22.957Z,16.57
2023-05-14T07:29:22.938Z,16.78
2023-05-14T07:30:23.146Z,16.81
2023-05-14T07:31:23.013Z,16.85
2023-05-14T07:32:22.904Z,17.16
2023-05-14T07:33:22.872Z,17.31
2023-05-14T07:34:22.952Z,17.25
2023-05-14T07:35:22.859Z,17.03
2023-05-14T07:36:22.877Z,16.82
2023-05-14T07:37:24.191Z,16.66
2023-05-14T07:38:22.851Z,16.46
2023-05-14T07:39:22.817Z,16.57
2023-05-14T07:40:23.086Z,16.88
2023-05-14T07:41:22.814Z,16.97
2023-05-14T07:42:35.291Z,17.03
2023-05-14T07:43:22.768Z,17.06
2023-05-14T07:44:22.773Z,17.22
2023-05-14T07:45:22.908Z,17.52
2023-05-14T07:46:22.753Z,17.49
2023-05-14T07:47:22.810Z,17.31
2023-05-14T07:48:22.805Z,17.18
2023-05-14T07:49:22.699Z,16.76
2023-05-14T07:50:22.879Z,16.57
2023-05-14T07:51:22.705Z,16.53
2023-05-14T07:52:22.686Z,16.48
2023-05-14T07:53:22.657Z,16.52
2023-05-14T07:54:22.705Z,16.56
2023-05-14T07:55:22.640Z,16.52
2023-05-14T07:56:22.706Z,16.49
2023-05-14T07:57:22.637Z,16.46
2023-05-14T07:58:22.631Z,16.39
2023-05-14T07:59:22.591Z,16.30
2023-05-14T08:00:22.855Z,16.21
2023-05-14T08:01:22.583Z,16.14
2023-05-14T08:02:22.687Z,16.08
2023-05-14T08:03:22.720Z,16.11
2023-05-14T08:04:22.598Z,16.15
2023-05-14T08:05:22.535Z,16.20
2023-05-14T08:06:22.543Z,16.20
2023-05-14T08:07:22.518Z,16.20
2023-05-14T08:08:22.523Z,16.14
2023-05-14T08:09:22.484Z,16.01
2023-05-14T08:10:22.937Z,15.96
2023-05-14T08:11:22.544Z,15.92
2023-05-14T08:12:22.484Z,15.87
2023-05-14T08:13:22.445Z,15.87
2023-05-14T08:14:22.458Z,15.78
2023-05-14T08:15:22.431Z,15.72
2023-05-14T08:16:22.482Z,15.65
2023-05-14T08:17:22.461Z,15.57
2023-05-14T08:18:22.428Z,15.53
2023-05-14T08:19:22.380Z,15.50
2023-05-14T08:20:22.637Z,15.44
2023-05-14T08:21:22.401Z,15.44
2023-05-14T08:22:22.366Z,15.41
2023-05-14T08:23:22.432Z,15.46
2023-05-14T08:24:22.331Z,15.49
2023-05-14T08:25:22.383Z,15.53
2023-05-14T08:26:22.300Z,15.56
2023-05-14T08:27:22.367Z,15.51
2023-05-14T08:28:22.282Z,15.49
2023-05-14T08:29:22.309Z,15.47
2023-05-14T08:30:22.495Z,15.46
2023-05-14T08:31:22.384Z,15.46
2023-05-14T08:32:24.179Z,15.39
2023-05-14T08:33:22.257Z,15.35
2023-05-14T08:34:22.221Z,15.34
2023-05-14T08:35:22.254Z,15.32
2023-05-14T08:36:22.206Z,15.34
2023-05-14T08:37:22.207Z,15.28
2023-05-14T08:38:22.189Z,15.21
2023-05-14T08:39:22.182Z,15.17
2023-05-14T08:40:22.379Z,15.17
2023-05-14T08:41:22.180Z,15.17
2023-05-14T08:42:22.138Z,15.20
2023-05-14T08:43:22.145Z,15.23
2023-05-14T08:44:22.121Z,15.25
2023-05-14T08:45:22.134Z,15.23
2023-05-14T08:46:22.103Z,15.23
2023-05-14T08:47:22.137Z,15.27
2023-05-14T08:48:22.146Z,15.31
2023-05-14T08:49:22.094Z,15.32
2023-05-14T08:50:23.254Z,15.36
2023-05-14T08:51:22.109Z,15.36
2023-05-14T08:52:22.028Z,15.35
2023-05-14T08:53:22.057Z,15.38
2023-05-14T08:54:22.023Z,15.41
2023-05-14T08:55:22.031Z,15.46
2023-05-14T08:56:21.988Z,15.46
2023-05-14T08:57:22.005Z,15.41
2023-05-14T08:58:21.968Z,15.43
2023-05-14T08:59:21.999Z,15.50
2023-05-14T09:00:22.176Z,15.51
2023-05-14T09:01:21.965Z,15.53
2023-05-14T09:02:21.964Z,15.57
2023-05-14T09:03:21.969Z,15.59
2023-05-14T09:04:21.921Z,15.50
2023-05-14T09:05:21.911Z,15.38
2023-05-14T09:06:21.886Z,15.38
2023-05-14T09:07:21.904Z,15.46
2023-05-14T09:08:21.867Z,15.50
2023-05-14T09:09:21.870Z,15.57
2023-05-14T09:10:21.941Z,15.57
2023-05-14T09:11:21.858Z,15.62
2023-05-14T09:12:21.848Z,15.64
2023-05-14T09:13:21.821Z,15.67
2023-05-14T09:14:21.802Z,15.43
2023-05-14T09:15:21.816Z,15.29
2023-05-14T09:16:21.782Z,15.32
2023-05-14T09:17:21.799Z,15.34
2023-05-14T09:18:21.770Z,15.41
2023-05-14T09:19:21.898Z,15.49
2023-05-14T09:20:21.910Z,15.54
2023-05-14T09:21:21.737Z,15.64
2023-05-14T09:22:21.713Z,15.68
2023-05-14T09:23:21.709Z,15.62
2023-05-14T09:24:21.698Z,15.64
2023-05-14T09:25:21.678Z,15.68
2023-05-14T09:26:21.688Z,15.71
2023-05-14T09:27:21.684Z,15.75
2023-05-14T09:28:21.641Z,15.84
2023-05-14T09:29:21.684Z,15.90
2023-05-14T09:30:21.719Z,15.93
2023-05-14T09:31:21.654Z,15.96
2023-05-14T09:32:21.598Z,16.01
2023-05-14T09:33:21.631Z,16.00
2023-05-14T09:34:21.579Z,16.01
2023-05-14T09:35:21.609Z,16.11
2023-05-14T09:36:21.552Z,16.21
2023-05-14T09:37:21.573Z,16.28
2023-05-14T09:38:21.544Z,16.48
2023-05-14T09:39:21.555Z,16.63
2023-05-14T09:40:21.829Z,16.70
2023-05-14T09:41:21.519Z,16.83
2023-05-14T09:42:21.493Z,17.00
2023-05-14T09:43:21.494Z,17.16
2023-05-14T09:44:21.501Z,17.31
2023-05-14T09:45:21.478Z,17.44
2023-05-14T09:46:21.460Z,17.54
2023-05-14T09:47:21.490Z,17.58
2023-05-14T09:48:21.451Z,17.56
2023-05-14T09:49:21.448Z,17.71
2023-05-14T09:50:21.636Z,17.89
2023-05-14T09:51:21.450Z,18.10
2023-05-14T09:52:21.401Z,18.23
2023-05-14T09:53:21.392Z,18.25
2023-05-14T09:54:21.366Z,18.15
2023-05-14T09:55:21.451Z,17.90
2023-05-14T09:56:21.339Z,17.90
2023-05-14T09:57:21.360Z,17.89
2023-05-14T09:58:21.333Z,17.84
2023-05-14T09:59:21.363Z,17.84
2023-05-14T10:00:21.572Z,17.90
2023-05-14T10:01:21.315Z,17.90
2023-05-14T10:02:21.352Z,17.81
2023-05-14T10:03:21.282Z,17.77
2023-05-14T10:04:21.298Z,17.75
2023-05-14T10:05:21.267Z,17.78
2023-05-14T10:06:21.245Z,17.84
2023-05-14T10:07:21.239Z,17.82
2023-05-14T10:08:21.209Z,17.78
2023-05-14T10:09:21.241Z,17.84
2023-05-14T10:10:21.378Z,17.89
2023-05-14T10:11:21.214Z,17.93
2023-05-14T10:12:21.180Z,17.96
2023-05-14T10:13:21.208Z,17.82
2023-05-14T10:14:21.153Z,17.72
2023-05-14T10:15:21.175Z,17.64
2023-05-14T10:16:21.181Z,17.63
2023-05-14T10:17:21.181Z,17.66
2023-05-14T10:18:21.122Z,17.70
2023-05-14T10:19:21.350Z,17.71
2023-05-14T10:20:21.118Z,17.74
2023-05-14T10:21:21.105Z,17.70
2023-05-14T10:22:21.066Z,17.51
2023-05-14T10:23:21.079Z,17.23
2023-05-14T10:24:21.074Z,17.16
2023-05-14T10:25:21.045Z,17.14
2023-05-14T10:26:23.202Z,17.04
2023-05-14T10:27:21.044Z,17.01
2023-05-14T10:28:21.039Z,17.01
2023-05-14T10:29:21.022Z,17.00
2023-05-14T10:30:20.977Z,16.98
2023-05-14T10:31:21.078Z,17.01
2023-05-14T10:32:20.956Z,17.08
2023-05-14T10:33:21.006Z,17.14
2023-05-14T10:34:20.944Z,17.15
2023-05-14T10:35:21.006Z,17.19
2023-05-14T10:36:20.910Z,17.15
2023-05-14T10:37:20.936Z,17.08
2023-05-14T10:38:20.909Z,16.98
2023-05-14T10:39:20.901Z,17.01
2023-05-14T10:40:20.900Z,16.98
2023-05-14T10:41:20.883Z,16.98
2023-05-14T10:42:20.849Z,17.03
2023-05-14T10:43:20.878Z,16.96
2023-05-14T10:44:20.829Z,16.85
2023-05-14T10:45:20.849Z,16.73
2023-05-14T10:46:20.807Z,16.70
2023-05-14T10:47:20.853Z,16.67
2023-05-14T10:48:20.860Z,16.63
2023-05-14T10:49:32.340Z,16.73
2023-05-14T10:50:20.784Z,16.82
2023-05-14T10:51:20.911Z,16.94
2023-05-14T10:52:20.764Z,17.01
2023-05-14T10:53:20.761Z,17.14
2023-05-14T10:54:20.713Z,17.26
2023-05-14T10:55:20.748Z,17.41
2023-05-14T10:56:20.701Z,17.55
2023-05-14T10:57:20.700Z,17.71
2023-05-14T10:58:20.678Z,17.81
2023-05-14T10:59:20.694Z,17.96
2023-05-14T11:00:20.677Z,18.15
2023-05-14T11:01:20.684Z,18.41
2023-05-14T11:02:20.658Z,18.88
2023-05-14T11:03:20.713Z,19.33
2023-05-14T11:04:20.657Z,19.86
2023-05-14T11:05:20.636Z,20.50
2023-05-14T11:06:20.611Z,20.70
2023-05-14T11:07:20.600Z,20.89
2023-05-14T11:08:21.521Z,21.21
2023-05-14T11:09:20.596Z,21.56
2023-05-14T11:10:20.571Z,21.67
2023-05-14T11:11:20.594Z,21.92
2023-05-14T11:12:20.547Z,21.80
2023-05-14T11:13:20.549Z,21.91
2023-05-14T11:14:20.512Z,22.00
2023-05-14T11:15:20.534Z,21.75
2023-05-14T11:16:23.328Z,21.77
2023-05-14T11:17:20.529Z,21.44
2023-05-14T11:18:20.464Z,21.27
2023-05-14T11:19:20.497Z,21.09
2023-05-14T11:20:20.447Z,20.82
2023-05-14T11:21:20.522Z,20.67
2023-05-14T11:22:20.424Z,20.62
2023-05-14T11:23:20.432Z,20.61
2023-05-14T11:24:20.400Z,20.59
2023-05-14T11:25:20.422Z,20.54
2023-05-14T11:26:21.657Z,20.55
2023-05-14T11:27:20.398Z,20.58
2023-05-14T11:28:20.373Z,20.52
2023-05-14T11:29:20.366Z,20.39
2023-05-14T11:30:20.362Z,20.32
2023-05-14T11:31:20.385Z,20.13
2023-05-14T11:32:20.424Z,19.98
2023-05-14T11:33:20.409Z,19.86
2023-05-14T11:34:20.329Z,19.68
2023-05-14T11:35:20.320Z,19.63
2023-05-14T11:36:20.284Z,19.55
2023-05-14T11:37:20.305Z,19.44
2023-05-14T11:38:20.265Z,19.39
2023-05-14T11:39:20.272Z,19.40
2023-05-14T11:40:20.229Z,19.40
2023-05-14T11:41:20.240Z,19.41
2023-05-14T11:42:20.226Z,19.31
2023-05-14T11:43:20.237Z,19.31
2023-05-14T11:44:20.200Z,19.23
2023-05-14T11:45:20.210Z,19.22
2023-05-14T11:46:20.245Z,19.29
2023-05-14T11:47:20.191Z,19.37
2023-05-14T11:48:20.167Z,19.43
2023-05-14T11:49:20.176Z,19.47
2023-05-14T11:50:20.136Z,19.58
2023-05-14T11:51:20.132Z,19.62
2023-05-14T11:52:20.110Z,19.61
2023-05-14T11:53:20.129Z,19.71
2023-05-14T11:54:20.095Z,19.86
2023-05-14T11:55:20.105Z,19.98
2023-05-14T11:56:20.075Z,20.03
2023-05-14T11:57:20.084Z,19.92
2023-05-14T11:58:20.042Z,19.92
2023-05-14T11:59:20.060Z,19.98
2023-05-14T12:00:20.018Z,19.88
2023-05-14T12:01:20.033Z,19.80
2023-05-14T12:02:20.033Z,19.83
2023-05-14T12:03:20.206Z,19.86
2023-05-14T12:04:20.018Z,19.87
2023-05-14T12:05:20.016Z,19.78
2023-05-14T12:06:19.946Z,19.73
2023-05-14T12:07:19.972Z,19.69
2023-05-14T12:08:19.925Z,19.50
2023-05-14T12:09:19.985Z,19.47
2023-05-14T12:10:19.915Z,19.94
2023-05-14T12:11:19.925Z,20.20
2023-05-14T12:12:19.884Z,20.28
2023-05-14T12:13:19.908Z,20.24
2023-05-14T12:14:19.886Z,20.23
2023-05-14T12:15:19.894Z,20.31
2023-05-14T12:16:19.866Z,20.18
2023-05-14T12:17:19.864Z,20.05
2023-05-14T12:18:24.517Z,19.86
2023-05-14T12:19:19.872Z,19.61
2023-05-14T12:20:19.804Z,19.59
2023-05-14T12:21:19.836Z,19.56
2023-05-14T12:22:19.782Z,19.54
2023-05-14T12:23:19.808Z,19.44
2023-05-14T12:24:19.760Z,19.25
2023-05-14T12:25:19.779Z,19.22
2023-05-14T12:26:19.789Z,19.10
2023-05-14T12:27:19.748Z,18.95
2023-05-14T12:28:19.717Z,18.99
2023-05-14T12:29:19.734Z,18.99
2023-05-14T12:30:21.448Z,18.94
2023-05-14T12:31:19.739Z,18.94
2023-05-14T12:32:19.675Z,18.98
2023-05-14T12:33:19.695Z,18.95
2023-05-14T12:34:19.653Z,18.95
2023-05-14T12:35:19.653Z,18.99
2023-05-14T12:36:21.658Z,18.98
2023-05-14T12:37:19.667Z,18.95
2023-05-14T12:38:19.644Z,18.80
2023-05-14T12:39:19.604Z,18.72
2023-05-14T12:40:19.626Z,18.57
2023-05-14T12:41:19.580Z,18.55
2023-05-14T12:42:19.596Z,18.66
2023-05-14T12:43:19.575Z,18.67
2023-05-14T12:44:19.560Z,18.73
2023-05-14T12:45:19.531Z,18.75
2023-05-14T12:46:19.542Z,18.69
2023-05-14T12:47:19.710Z,18.62
2023-05-14T12:48:19.536Z,18.66
2023-05-14T12:49:19.502Z,18.72
2023-05-14T12:50:19.542Z,18.67
2023-05-14T12:51:19.470Z,18.87
2023-05-14T12:52:29.405Z,19.02
2023-05-14T12:53:19.455Z,19.13
2023-05-14T12:54:19.474Z,19.32
2023-05-14T12:55:19.432Z,19.55
2023-05-14T12:56:19.441Z,19.62
2023-05-14T12:57:19.419Z,19.62
2023-05-14T12:58:19.408Z,19.76
2023-05-14T12:59:19.409Z,19.88
2023-05-14T13:00:19.430Z,20.02
2023-05-14T13:01:19.394Z,20.18